Time;durP1;ratioP1;P1;durP2;ratioP2;P2;SDS_P1;SDS_P2;PMS_P1;PMS_P2;Temp;Humidity;BMP_temperature;BMP_pressure;BME280_temperature;BME280_humidity;BME280_pressure;Samples;Min_cycle;Max_cycle;Signal;HPM_P1;HPM_P2
2022/05/21 00:01:49;;;;;;;19.98;9.00;;;;;;;10.16;100.00;101668.84;5034431;28;20118;-76
2022/05/21 00:04:14;;;;;;;18.30;8.60;;;;;;;10.24;100.00;101671.28;5018177;28;20645;-76
2022/05/21 00:06:41;;;;;;;18.52;9.10;;;;;;;10.34;100.00;101654.16;5035619;28;20141;-75
2022/05/21 00:09:07;;;;;;;15.30;9.52;;;;;;;10.42;100.00;101656.59;5034857;28;20086;-77
2022/05/21 00:11:33;;;;;;;18.92;9.43;;;;;;;10.46;100.00;101659.13;5035584;28;20090;-76
2022/05/21 00:13:58;;;;;;;21.83;9.60;;;;;;;10.51;100.00;101658.09;5036072;28;20049;-74
2022/05/21 00:16:24;;;;;;;19.25;9.93;;;;;;;10.58;100.00;101662.28;5018741;28;20055;-74
2022/05/21 00:18:50;;;;;;;18.15;9.50;;;;;;;10.64;100.00;101659.44;5035662;28;20377;-75
2022/05/21 00:21:16;;;;;;;19.38;9.48;;;;;;;10.68;100.00;101653.13;5035912;28;20033;-74
2022/05/21 00:23:42;;;;;;;18.77;8.57;;;;;;;10.73;100.00;101653.84;5034794;28;20112;-74
2022/05/21 00:26:10;;;;;;;20.17;9.32;;;;;;;10.72;100.00;101652.09;5023101;28;20150;-75
2022/05/21 00:28:37;;;;;;;16.45;8.23;;;;;;;10.77;100.00;101643.13;5040754;28;20628;-75
2022/05/21 00:31:04;;;;;;;15.25;7.93;;;;;;;10.80;100.00;101650.97;5012445;28;20045;-76
2022/05/21 00:33:30;;;;;;;15.75;8.43;;;;;;;10.86;100.00;101646.31;5017891;28;20037;-75
2022/05/21 00:35:56;;;;;;;13.90;6.88;;;;;;;10.92;100.00;101647.03;5000974;28;20039;-76
2022/05/21 00:38:22;;;;;;;14.00;7.47;;;;;;;10.96;100.00;101640.75;5035198;28;20045;-76
2022/05/21 00:40:48;;;;;;;18.10;8.07;;;;;;;10.99;100.00;101637.97;5035287;28;20044;-77
2022/05/21 00:43:46;;;;;;;15.20;7.88;;;;;;;11.04;100.00;101640.44;5032833;28;20028;-76
2022/05/21 00:46:42;;;;;;;15.82;7.65;;;;;;;11.08;100.00;101628.84;5033549;28;20087;-76
2022/05/21 00:49:18;;;;;;;10.27;6.68;;;;;;;11.10;100.00;101627.00;5016215;28;21923;-78
2022/05/21 00:51:59;;;;;;;17.90;7.70;;;;;;;11.13;100.00;101629.56;5017300;28;20029;-75
2022/05/21 00:54:28;;;;;;;14.63;8.00;;;;;;;11.14;100.00;101628.63;5035207;28;20041;-76
2022/05/21 00:56:59;;;;;;;16.25;7.93;;;;;;;11.16;100.00;101626.78;5033707;28;20051;-76
2022/05/21 01:02:11;;;;;;;15.40;8.15;;;;;;;11.19;100.00;101624.03;5019716;28;20653;-76
2022/05/21 01:04:37;;;;;;;14.85;7.13;;;;;;;11.22;100.00;101626.56;5034720;28;20038;-75
2022/05/21 01:07:04;;;;;;;13.07;6.68;;;;;;;11.23;100.00;101633.59;5035052;28;20087;-75
2022/05/21 01:09:31;;;;;;;17.27;7.75;;;;;;;11.24;100.00;101635.31;5034220;28;20035;-75
2022/05/21 01:11:56;;;;;;;14.23;7.50;;;;;;;11.25;100.00;101636.19;5024108;28;20039;-76
2022/05/21 01:14:22;;;;;;;11.38;6.95;;;;;;;11.25;100.00;101630.91;5034403;28;21668;-74
2022/05/21 01:16:49;;;;;;;13.70;6.82;;;;;;;11.25;100.00;101629.13;5032525;28;21643;-74
2022/05/21 01:19:15;;;;;;;12.20;6.97;;;;;;;11.26;100.00;101629.97;5016651;28;20041;-75
2022/05/21 01:21:41;;;;;;;11.05;6.88;;;;;;;11.27;100.00;101627.28;5016730;28;20035;-74
2022/05/21 01:24:08;;;;;;;10.45;6.75;;;;;;;11.27;100.00;101621.09;5008266;28;20033;-74
2022/05/21 01:26:34;;;;;;;13.45;6.85;;;;;;;11.29;100.00;101624.56;5024198;28;20100;-76
2022/05/21 01:29:03;;;;;;;13.23;7.28;;;;;;;11.30;100.00;101614.81;5034354;28;20044;-74
2022/05/21 01:31:30;;;;;;;12.32;6.28;;;;;;;11.33;100.00;101606.78;5016516;28;20066;-75
2022/05/21 01:33:55;;;;;;;11.48;6.22;;;;;;;11.34;100.00;101606.69;5023628;28;20491;-76
2022/05/21 01:36:21;;;;;;;17.00;6.13;;;;;;;11.37;100.00;101605.72;5016695;28;20055;-74
2022/05/21 01:38:47;;;;;;;13.13;5.82;;;;;;;11.39;100.00;101614.50;5033839;28;20033;-78
2022/05/21 01:41:12;;;;;;;12.82;6.05;;;;;;;11.40;100.00;101608.28;5034176;28;21416;-75
2022/05/21 01:46:23;;;;;;;8.82;5.35;;;;;;;11.44;100.00;101607.22;5016236;28;20484;-77
2022/05/21 01:48:49;;;;;;;13.57;5.28;;;;;;;11.46;100.00;101608.06;5033796;28;20033;-77
2022/05/21 01:51:15;;;;;;;12.82;4.90;;;;;;;11.48;100.00;101600.00;5015956;28;20036;-76
2022/05/21 01:53:40;;;;;;;9.30;4.30;;;;;;;11.49;100.00;101613.22;5032116;28;20124;-77
2022/05/21 01:56:07;;;;;;;13.98;4.85;;;;;;;11.50;100.00;101611.44;5033907;28;20041;-77
2022/05/21 01:58:33;;;;;;;12.38;4.40;;;;;;;11.50;100.00;101612.28;5015714;28;20031;-76
2022/05/21 02:00:58;;;;;;;10.20;4.18;;;;;;;11.54;100.00;101613.03;5007531;28;20037;-76
2022/05/21 02:03:26;;;;;;;12.23;3.90;;;;;;;11.52;100.00;101602.53;5033664;28;20070;-76
2022/05/21 02:05:51;;;;;;;12.75;3.95;;;;;;;11.55;100.00;101609.47;5016294;28;20492;-76
2022/05/21 02:08:17;;;;;;;7.05;3.30;;;;;;;11.57;100.00;101604.13;5024141;28;20043;-76
2022/05/21 02:10:44;;;;;;;14.55;4.20;;;;;;;11.57;100.00;101606.78;5016121;28;20067;-75
2022/05/21 02:13:15;;;;;;;7.30;3.67;;;;;;;11.58;100.00;101617.31;5012504;28;20147;-75
2022/05/21 02:15:41;;;;;;;8.80;3.42;;;;;;;11.61;100.00;101613.69;5014049;28;20499;-75
2022/05/21 02:18:06;;;;;;;11.73;3.47;;;;;;;11.63;100.00;101609.19;5012278;28;20041;-75
2022/05/21 02:20:32;;;;;;;14.68;3.08;;;;;;;11.62;100.00;101607.47;5013645;28;20184;-74
2022/05/21 02:22:57;;;;;;;10.27;2.85;;;;;;;11.64;100.00;101621.53;5015687;28;20099;-75
2022/05/21 02:25:23;;;;;;;8.98;3.00;;;;;;;11.64;100.00;101600.31;5017705;28;20125;-75
2022/05/21 02:27:49;;;;;;;11.93;3.15;;;;;;;11.65;100.00;101608.22;5032590;28;20570;-77
2022/05/21 02:30:15;;;;;;;7.57;2.92;;;;;;;11.66;100.00;101609.09;5008642;28;20034;-73
2022/05/21 02:32:41;;;;;;;7.53;2.67;;;;;;;11.66;100.00;101598.47;5018144;28;20029;-74
2022/05/21 02:35:07;;;;;;;6.65;2.80;;;;;;;11.68;100.00;101596.63;5016417;28;20029;-75
2022/05/21 02:40:16;;;;;;;7.88;2.60;;;;;;;11.71;100.00;101607.09;5017297;28;20388;-77
2022/05/21 02:42:45;;;;;;;8.85;2.72;;;;;;;11.71;100.00;101601.81;5017428;28;20029;-74
2022/05/21 02:45:23;;;;;;;6.20;2.58;;;;;;;11.73;100.00;101602.63;5017289;28;20073;-76
2022/05/21 02:47:49;;;;;;;8.65;3.25;;;;;;;11.73;100.00;101605.28;5032932;28;20041;-75
2022/05/21 02:50:18;;;;;;;7.93;2.65;;;;;;;11.72;100.00;101611.47;5017475;28;20094;-76
2022/05/21 02:52:44;;;;;;;11.50;3.00;;;;;;;11.72;100.00;101603.53;5032181;28;20523;-77
2022/05/21 02:55:11;;;;;;;5.10;2.58;;;;;;;11.74;100.00;101599.03;5017651;28;20033;-77
2022/05/21 02:57:37;;;;;;;8.50;2.30;;;;;;;11.74;100.00;101601.69;5017438;28;20029;-76
2022/05/21 03:00:05;;;;;;;7.57;2.60;;;;;;;11.74;100.00;101607.00;5017474;28;20060;-77
2022/05/21 03:02:31;;;;;;;12.30;2.60;;;;;;;11.75;100.00;101603.44;5017646;28;20133;-76
2022/05/21 03:04:59;;;;;;;9.38;2.75;;;;;;;11.76;100.00;101610.47;5017959;28;20048;-76
2022/05/21 03:07:24;;;;;;;9.85;2.85;;;;;;;11.78;100.00;101613.91;5015504;28;20025;-77
2022/05/21 03:12:35;;;;;;;7.18;2.30;;;;;;;11.79;100.00;101618.31;5017517;28;20057;-76
2022/05/21 03:15:00;;;;;;;7.32;2.70;;;;;;;11.81;100.00;101619.13;5034769;28;20182;-77
2022/05/21 03:17:27;;;;;;;6.18;2.83;;;;;;;11.82;100.00;101626.16;5036943;28;20102;-77
2022/05/21 03:19:52;;;;;;;10.07;2.13;;;;;;;11.84;100.00;101628.75;5026921;28;20036;-75
2022/05/21 03:22:18;;;;;;;8.43;2.55;;;;;;;11.84;100.00;101625.22;5036943;28;20567;-81
2022/05/21 03:24:44;;;;;;;5.10;2.40;;;;;;;11.84;100.00;101623.44;5018388;28;20032;-76
2022/05/21 03:27:10;;;;;;;7.65;2.45;;;;;;;11.84;100.00;101615.47;5018450;28;20079;-78
2022/05/21 03:29:35;;;;;;;8.65;2.67;;;;;;;11.82;100.00;101625.25;5018007;28;20110;-78
2022/05/21 03:32:01;;;;;;;9.43;2.78;;;;;;;11.80;100.00;101628.00;5036458;28;20029;-79
2022/05/21 03:34:27;;;;;;;3.78;1.92;;;;;;;11.79;100.00;101634.22;5036411;28;20039;-76
2022/05/21 03:36:52;;;;;;;7.15;2.22;;;;;;;11.76;100.00;101634.34;5036945;28;20026;-77
2022/05/21 03:39:18;;;;;;;7.97;2.00;;;;;;;11.75;100.00;101639.69;5018364;28;20458;-77
2022/05/21 03:41:43;;;;;;;7.82;2.28;;;;;;;11.72;100.00;101640.66;5036667;28;20028;-77
2022/05/21 03:44:09;;;;;;;6.20;2.20;;;;;;;11.71;100.00;101646.91;5036657;28;20118;-78
2022/05/21 03:46:38;;;;;;;6.18;1.90;;;;;;;11.68;100.00;101642.56;5036344;28;20075;-76
2022/05/21 03:49:07;;;;;;;3.67;1.80;;;;;;;11.65;100.00;101644.47;5036725;28;20099;-77
2022/05/21 03:51:33;;;;;;;5.25;2.10;;;;;;;11.64;100.00;101645.41;5036537;28;20041;-79
2022/05/21 03:53:58;;;;;;;6.45;2.00;;;;;;;11.61;100.00;101646.38;5017341;28;20040;-77
2022/05/21 03:56:24;;;;;;;6.70;1.98;;;;;;;11.60;100.00;101646.44;5036106;28;20456;-76
2022/05/21 03:58:49;;;;;;;7.68;2.17;;;;;;;11.58;100.00;101645.63;5009422;28;20078;-77
2022/05/21 04:01:15;;;;;;;7.28;1.80;;;;;;;11.57;100.00;101649.19;5035976;28;20107;-77
2022/05/21 04:03:41;;;;;;;7.50;1.90;;;;;;;11.57;100.00;101649.19;5035954;28;20399;-78
2022/05/21 04:06:07;;;;;;;12.82;2.17;;;;;;;11.55;100.00;101649.25;5017677;28;20680;-76
2022/05/21 04:08:32;;;;;;;9.68;2.30;;;;;;;11.55;100.00;101650.13;5035662;28;20032;-77
2022/05/21 04:10:58;;;;;;;5.43;2.25;;;;;;;11.55;100.00;101650.13;5017558;28;20126;-78
2022/05/21 04:13:24;;;;;;;6.75;2.35;;;;;;;11.55;100.00;101663.38;5035467;28;20147;-78
2022/05/21 04:15:49;;;;;;;5.82;1.85;;;;;;;11.55;100.00;101665.16;5035419;28;20361;-77
2022/05/21 04:18:17;;;;;;;4.30;1.92;;;;;;;11.54;100.00;101666.09;5035362;28;20064;-77
2022/05/21 04:20:42;;;;;;;5.57;1.67;;;;;;;11.53;100.00;101661.72;5035197;28;20033;-80
2022/05/21 04:23:08;;;;;;;4.88;1.75;;;;;;;11.52;100.00;101665.28;5035382;28;20522;-78
2022/05/21 04:25:34;;;;;;;5.47;1.80;;;;;;;11.50;100.00;101662.69;5036151;28;20029;-77
2022/05/21 04:27:59;;;;;;;5.70;1.67;;;;;;;11.50;100.00;101662.69;5035254;28;20458;-80
2022/05/21 04:30:28;;;;;;;10.25;2.25;;;;;;;11.50;100.00;101667.97;5035647;28;20115;-78
2022/05/21 04:32:55;;;;;;;4.90;1.85;;;;;;;11.49;100.00;101668.91;5034008;28;20025;-75
2022/05/21 04:35:21;;;;;;;5.95;1.80;;;;;;;11.46;100.00;101671.69;5017627;28;20052;-76
2022/05/21 04:37:47;;;;;;;3.90;1.30;;;;;;;11.47;100.00;101675.19;5035121;28;20063;-75
2022/05/21 04:40:16;;;;;;;5.72;1.85;;;;;;;11.45;100.00;101677.91;5017706;28;20056;-78
2022/05/21 04:42:42;;;;;;;6.18;1.63;;;;;;;11.44;100.00;101688.56;5016988;28;20053;-76
2022/05/21 04:45:08;;;;;;;3.10;1.60;;;;;;;11.43;100.00;101682.38;5034464;28;20116;-76
2022/05/21 04:47:34;;;;;;;3.58;1.70;;;;;;;11.43;100.00;101687.69;5033954;28;20565;-77
2022/05/21 04:50:00;;;;;;;5.45;1.90;;;;;;;11.43;100.00;101682.38;5016973;28;20399;-80
2022/05/21 04:52:25;;;;;;;7.95;2.03;;;;;;;11.43;100.00;101685.03;5034688;28;20041;-77
2022/05/21 04:54:51;;;;;;;4.85;1.48;;;;;;;11.45;100.00;101680.56;5017150;28;20036;-77
2022/05/21 04:57:16;;;;;;;9.80;1.88;;;;;;;11.52;100.00;101694.44;5034813;28;20072;-76
2022/05/21 04:59:42;;;;;;;6.13;2.13;;;;;;;11.55;100.00;101697.84;5016928;28;20112;-78
2022/05/21 05:02:08;;;;;;;4.72;1.60;;;;;;;11.57;100.00;101700.47;5016938;28;20446;-77
2022/05/21 05:04:33;;;;;;;4.55;1.80;;;;;;;11.62;100.00;101702.94;5000392;28;20430;-78
2022/05/21 05:06:59;;;;;;;6.93;1.95;;;;;;;11.64;100.00;101706.41;5034524;28;20236;-76
2022/05/21 05:09:24;;;;;;;7.93;2.15;;;;;;;11.70;100.00;101710.63;5035132;28;20037;-76
2022/05/21 05:11:51;;;;;;;7.18;1.70;;;;;;;11.73;100.00;101710.50;5034055;28;20427;-78
2022/05/21 05:14:17;;;;;;;4.55;1.83;;;;;;;11.77;100.00;101715.66;5032472;28;20057;-75
2022/05/21 05:16:43;;;;;;;4.88;1.60;;;;;;;11.83;100.00;101722.53;5034623;28;20039;-77
2022/05/21 05:19:08;;;;;;;4.40;1.58;;;;;;;11.87;100.00;101726.78;5034240;28;20036;-75
2022/05/21 05:21:34;;;;;;;3.33;1.80;;;;;;;11.93;100.00;101709.78;5034581;28;20029;-83
2022/05/21 05:23:59;;;;;;;7.00;1.90;;;;;;;11.98;100.00;101713.13;5016038;28;20475;-77
2022/05/21 05:26:25;;;;;;;6.60;2.25;;;;;;;12.09;100.00;101716.28;5034553;28;20171;-78
2022/05/21 05:28:51;;;;;;;7.32;2.38;;;;;;;12.23;100.00;101725.50;5034032;28;20051;-78
2022/05/21 05:31:17;;;;;;;4.38;1.63;;;;;;;12.28;100.00;101728.84;5034578;28;20032;-78
2022/05/21 05:33:42;;;;;;;6.88;1.70;;;;;;;12.33;100.00;101723.34;5034299;28;20036;-76
2022/05/21 05:36:08;;;;;;;7.85;1.80;;;;;;;12.37;100.00;101730.28;5034307;28;20060;-77
2022/05/21 05:38:34;;;;;;;6.57;1.52;;;;;;;12.38;100.00;101721.38;5034081;28;20025;-78
2022/05/21 05:40:59;;;;;;;2.95;1.55;;;;;;;12.46;100.00;101727.25;5016607;28;20032;-76
2022/05/21 05:43:25;;;;;;;2.80;1.77;;;;;;;12.54;100.00;101734.94;5032800;28;20065;-79
2022/05/21 05:45:53;;;;;;;2.88;1.45;;;;;;;12.61;100.00;101735.53;5016442;28;20447;-77
2022/05/21 05:48:22;;;;;;;3.80;1.50;;;;;;;12.70;100.00;101734.31;5015389;28;20383;-78
2022/05/21 05:50:47;;;;;;;3.92;1.40;;;;;;;12.81;100.00;101734.72;5017339;28;20029;-78
2022/05/21 05:53:13;;;;;;;4.10;1.35;;;;;;;12.92;100.00;101728.13;5015841;28;20098;-77
2022/05/21 05:55:41;;;;;;;5.80;1.60;;;;;;;13.02;100.00;101734.81;5034194;28;20024;-77
2022/05/21 06:01:01;;;;;;;3.63;1.33;;;;;;;13.21;100.00;101740.19;4978820;28;20513;-79
2022/05/21 06:03:27;;;;;;;6.75;1.67;;;;;;;13.27;100.00;101744.38;5034131;28;20112;-76
2022/05/21 06:05:53;;;;;;;4.63;1.45;;;;;;;13.36;100.00;101748.44;5016194;28;20052;-75
2022/05/21 06:08:19;;;;;;;3.65;1.67;;;;;;;13.48;100.00;101744.41;5033976;28;20033;-78
2022/05/21 06:10:45;;;;;;;6.40;1.52;;;;;;;13.52;100.00;101751.34;5034192;28;20040;-75
2022/05/21 06:13:12;;;;;;;6.30;1.85;;;;;;;13.56;100.00;101758.25;5033982;28;20068;-77
2022/05/21 06:15:38;;;;;;;4.88;1.50;;;;;;;13.59;100.00;101760.78;5032717;28;20029;-76
2022/05/21 06:18:19;;;;;;;5.88;1.83;;;;;;;13.55;100.00;101769.81;4994756;28;20028;-78
2022/05/21 06:20:45;;;;;;;4.47;1.30;;;;;;;13.43;100.00;101774.72;5034036;28;20037;-79
2022/05/21 06:23:12;;;;;;;4.18;1.38;;;;;;;13.35;100.00;101768.84;5033348;28;20040;-78
2022/05/21 06:25:38;;;;;;;5.53;1.52;;;;;;;13.31;100.00;101777.91;5034302;28;20040;-78
2022/05/21 06:28:05;;;;;;;3.88;1.30;;;;;;;13.27;100.00;101774.50;5034383;28;20543;-78
2022/05/21 06:30:32;;;;;;;8.05;1.80;;;;;;;13.25;100.00;101776.34;5033684;28;20570;-79
2022/05/21 06:32:59;;;;;;;3.80;1.35;;;;;;;13.32;100.00;101779.63;5033518;28;20029;-78
2022/05/21 06:35:26;;;;;;;4.40;1.80;;;;;;;13.43;100.00;101779.16;5033914;28;20086;-75
2022/05/21 06:37:52;;;;;;;7.13;1.70;;;;;;;13.51;100.00;101789.53;5033893;28;20041;-78
2022/05/21 06:40:18;;;;;;;4.88;1.52;;;;;;;13.50;100.00;101790.47;5033855;28;20052;-84
2022/05/21 06:42:43;;;;;;;8.48;1.70;;;;;;;13.46;100.00;101812.78;5033785;28;20037;-79
2022/05/21 06:45:09;;;;;;;5.55;1.38;;;;;;;13.38;100.00;101799.78;5033592;28;20036;-82
2022/05/21 06:47:36;;;;;;;5.70;1.50;;;;;;;13.31;100.00;101809.81;5034133;28;20534;-78
2022/05/21 06:50:03;;;;;;;4.13;1.42;;;;;;;13.30;100.00;101803.63;5033747;28;20399;-77
2022/05/21 06:52:30;;;;;;;5.97;1.70;;;;;;;13.25;100.00;101810.91;5033391;28;20021;-81
2022/05/21 06:54:56;;;;;;;5.32;1.40;;;;;;;13.17;100.00;101816.56;5033813;28;20029;-78
2022/05/21 06:57:26;;;;;;;2.85;1.33;;;;;;;13.15;100.00;101823.75;5033765;28;20442;-81
2022/05/21 06:59:52;;;;;;;4.75;1.60;;;;;;;13.16;100.00;101822.81;5006665;28;20094;-80
2022/05/21 07:02:17;;;;;;;3.85;1.38;;;;;;;13.24;100.00;101821.63;5015768;28;20099;-84
2022/05/21 07:07:34;;;;;;;7.13;1.98;;;;;;;13.44;100.00;101827.00;5034341;28;20029;-78
2022/05/21 07:10:06;;;;;;;8.07;1.40;;;;;;;13.53;100.00;101827.56;5020455;28;20039;-79
2022/05/21 07:12:33;;;;;;;5.63;1.70;;;;;;;13.52;100.00;101834.66;5037009;28;20049;-77
2022/05/21 07:15:00;;;;;;;6.53;1.73;;;;;;;13.58;100.00;101838.88;5019538;28;20079;-77
2022/05/21 07:17:26;;;;;;;4.25;1.50;;;;;;;13.62;100.00;101836.94;5018797;28;20044;-80
2022/05/21 07:19:51;;;;;;;8.88;1.70;;;;;;;13.65;100.00;101837.69;5018937;28;20041;-81
2022/05/21 07:22:17;;;;;;;3.00;1.55;;;;;;;13.77;100.00;101832.78;5018913;28;20037;-82
2022/05/21 07:24:43;;;;;;;7.13;1.80;;;;;;;13.83;100.00;101841.34;5018904;28;20040;-81
2022/05/21 07:27:12;;;;;;;5.57;1.67;;;;;;;13.85;100.00;101838.63;5019403;28;20448;-78
2022/05/21 07:29:38;;;;;;;7.65;1.83;;;;;;;13.88;100.00;101838.47;5011229;28;20032;-80
2022/05/21 07:32:05;;;;;;;6.07;1.70;;;;;;;13.95;100.00;101847.06;5018987;28;20572;-77
2022/05/21 07:34:31;;;;;;;5.43;1.40;;;;;;;14.03;100.00;101844.94;5035080;28;20034;-79
2022/05/21 07:36:57;;;;;;;6.20;1.58;;;;;;;14.13;100.00;101848.06;5002820;28;20499;-79
2022/05/21 07:39:22;;;;;;;6.05;1.30;;;;;;;14.32;100.00;101863.22;5018688;28;20070;-79
2022/05/21 07:41:48;;;;;;;4.57;1.13;;;;;;;14.30;100.00;101857.06;5010531;28;20078;-80
2022/05/21 07:44:13;;;;;;;5.13;1.50;;;;;;;14.27;100.00;101858.06;4986209;28;20403;-79
2022/05/21 07:46:39;;;;;;;2.90;1.48;;;;;;;14.36;100.00;101867.44;5036958;28;20101;-77
2022/05/21 07:49:04;;;;;;;4.63;1.70;;;;;;;14.44;100.00;101870.63;5036365;28;20048;-79
2022/05/21 07:51:30;;;;;;;8.15;2.05;;;;;;;14.40;100.00;101879.72;5037258;28;20032;-80
2022/05/21 07:53:56;;;;;;;7.05;1.70;;;;;;;14.30;100.00;101867.72;5036392;28;20040;-85
2022/05/21 07:56:22;;;;;;;5.30;1.35;;;;;;;14.30;100.00;101873.94;5035249;28;20029;-81
2022/05/21 07:58:49;;;;;;;4.90;1.60;;;;;;;14.41;100.00;101876.09;5035025;28;20049;-83
2022/05/21 08:01:16;;;;;;;5.97;1.27;;;;;;;14.58;100.00;101861.13;5019065;28;20039;-79
2022/05/21 08:03:42;;;;;;;5.60;1.48;;;;;;;14.67;100.00;101874.06;5034912;28;20307;-80
2022/05/21 08:06:08;;;;;;;5.00;1.60;;;;;;;14.65;100.00;101883.91;5018877;28;20051;-85
2022/05/21 08:08:33;;;;;;;4.28;1.80;;;;;;;14.73;100.00;101884.44;5036382;28;20040;-83
2022/05/21 08:10:59;;;;;;;6.05;1.15;;;;;;;14.81;100.00;101884.09;5018653;28;20024;-80
2022/05/21 08:13:25;;;;;;;3.17;1.27;;;;;;;14.88;100.00;101884.69;5036242;28;20056;-81
2022/05/21 08:15:50;;;;;;;7.72;1.50;;;;;;;14.91;99.24;101897.84;5017971;28;20488;-78
2022/05/21 08:18:16;;;;;;;7.80;1.45;;;;;;;14.87;99.84;101896.28;5018402;28;20147;-79
2022/05/21 08:20:41;;;;;;;4.68;1.50;;;;;;;14.85;99.21;101891.00;5002056;28;20128;-85
2022/05/21 08:28:40;;;;;;;8.48;2.05;;;;;;;15.05;98.15;101902.53;5036513;28;20136;-80
2022/05/21 08:31:06;;;;;;;9.43;1.40;;;;;;;15.24;97.98;101894.50;5019812;28;20024;-81
2022/05/21 08:33:31;;;;;;;5.45;1.50;;;;;;;15.47;97.89;101897.84;5002708;28;20119;-80
2022/05/21 08:35:57;;;;;;;8.35;1.58;;;;;;;15.60;96.49;101898.13;5020670;28;21676;-83
2022/05/21 08:38:22;;;;;;;5.30;2.15;;;;;;;15.60;95.21;101904.28;5037475;28;20048;-79
2022/05/21 08:41:03;;;;;;;3.33;1.02;;;;;;;15.54;94.58;101899.28;5018320;28;20044;-80
2022/05/21 08:43:34;;;;;;;3.30;1.40;;;;;;;15.52;95.88;101900.31;5035691;28;20033;-79
2022/05/21 08:46:07;;;;;;;5.38;1.40;;;;;;;15.42;95.66;101914.09;5036400;28;20380;-83
2022/05/21 08:48:34;;;;;;;3.75;1.50;;;;;;;15.38;95.93;101906.31;5039876;28;20064;-84
2022/05/21 08:51:04;;;;;;;4.40;1.48;;;;;;;15.43;95.53;101914.97;5021920;28;20120;-79
2022/05/21 08:53:31;;;;;;;4.32;1.60;;;;;;;15.54;95.31;101909.97;5036991;28;20055;-82
2022/05/21 08:55:59;;;;;;;6.63;1.90;;;;;;;15.65;96.48;101916.56;5035854;28;20079;-80
2022/05/21 08:58:25;;;;;;;6.68;1.17;;;;;;;15.68;95.65;101917.28;5001630;28;20033;-81
2022/05/21 09:00:51;;;;;;;3.40;1.50;;;;;;;15.65;94.91;101927.25;5035266;28;20382;-83
2022/05/21 09:03:23;;;;;;;3.40;1.30;;;;;;;15.73;95.51;101935.72;5035869;28;20048;-81
2022/05/21 09:06:17;;;;;;;7.03;1.63;;;;;;;15.77;95.13;101931.97;5017955;28;20044;-80
2022/05/21 09:08:49;;;;;;;3.33;1.40;;;;;;;15.73;95.41;101935.72;4998145;28;20050;-81
2022/05/21 09:11:26;;;;;;;3.15;1.08;;;;;;;15.66;94.00;101931.63;5035328;28;20041;-82
2022/05/21 09:14:10;;;;;;;5.28;1.20;;;;;;;15.52;93.52;101935.84;5036228;28;20067;-83
2022/05/21 09:16:57;;;;;;;7.07;1.50;;;;;;;15.45;94.77;101935.28;5035682;28;20048;-82
2022/05/21 09:19:25;;;;;;;3.92;0.98;;;;;;;15.44;93.96;101935.38;5019641;28;20619;-83
2022/05/21 09:21:59;;;;;;;5.10;1.50;;;;;;;15.55;93.48;101943.72;5034222;28;20056;-83
2022/05/21 09:24:58;;;;;;;2.47;1.10;;;;;;;15.55;91.35;101949.06;5034234;28;20032;-78
2022/05/21 09:27:28;;;;;;;10.75;2.03;;;;;;;15.42;93.11;101947.94;4990019;28;20056;-79
2022/05/21 09:30:16;;;;;;;5.75;1.95;;;;;;;15.32;93.07;101940.34;5025214;28;20045;-80
2022/05/21 09:32:46;;;;;;;2.92;1.30;;;;;;;15.35;92.54;101952.69;5034563;28;20094;-79
2022/05/21 09:35:16;;;;;;;4.40;1.08;;;;;;;15.52;92.11;101945.69;5000238;28;20692;-83
2022/05/21 09:37:42;;;;;;;4.78;1.30;;;;;;;15.66;91.55;101955.66;5034856;28;20095;-83
2022/05/21 09:40:29;;;;;;;4.43;1.30;;;;;;;15.60;90.05;101957.69;5008839;28;20065;-82
2022/05/21 09:45:41;;;;;;;6.25;1.15;;;;;;;15.61;90.90;101963.91;5020223;28;20029;-87
2022/05/21 09:48:07;;;;;;;5.40;1.40;;;;;;;15.56;90.28;101971.25;5032745;28;20044;-81
2022/05/21 09:50:52;;;;;;;3.15;1.10;;;;;;;15.71;89.65;101965.19;5035208;28;20037;-81
2022/05/21 09:53:30;;;;;;;3.03;1.20;;;;;;;15.68;89.76;101973.31;5016497;28;20064;-79
2022/05/21 09:56:03;;;;;;;4.32;1.50;;;;;;;15.58;89.42;101969.41;5017191;28;20099;-79
2022/05/21 09:58:37;;;;;;;5.68;1.73;;;;;;;15.58;90.37;101964.91;5016634;28;20765;-80
2022/05/21 10:01:04;;;;;;;6.03;1.38;;;;;;;15.65;89.66;101975.28;5006326;28;20875;-82
2022/05/21 10:03:41;;;;;;;7.25;1.02;;;;;;;15.68;89.82;101969.81;5032975;28;20456;-81
2022/05/21 10:06:18;;;;;;;4.53;1.23;;;;;;;15.76;88.58;101972.97;5033291;28;20059;-80
2022/05/21 10:11:56;;;;;;;4.82;1.30;;;;;;;15.81;88.03;101980.72;5032873;28;20147;-82
2022/05/21 10:14:31;;;;;;;7.40;1.50;;;;;;;15.78;88.17;101978.19;5010246;28;20045;-83
2022/05/21 10:17:00;;;;;;;4.03;0.93;;;;;;;15.90;88.39;101977.59;5000063;28;20491;-80
2022/05/21 10:19:34;;;;;;;2.78;1.10;;;;;;;16.05;87.28;101980.47;5034391;28;20128;-83
2022/05/21 10:22:16;;;;;;;5.90;1.30;;;;;;;16.17;86.88;101979.00;5034662;28;20060;-84
2022/05/21 10:25:08;;;;;;;3.17;1.65;;;;;;;16.31;85.47;101984.50;5034212;28;20563;-79
2022/05/21 10:27:39;;;;;;;4.82;1.25;;;;;;;16.37;86.72;101973.47;5032952;28;20841;-82
2022/05/21 10:30:10;;;;;;;4.03;1.05;;;;;;;16.40;83.35;101981.31;5016657;28;20029;-79
2022/05/21 10:32:39;;;;;;;5.00;1.10;;;;;;;16.25;84.84;101991.00;5032731;28;20032;-80
2022/05/21 10:35:42;;;;;;;5.75;1.20;;;;;;;16.17;84.70;101992.34;5016055;28;20107;-79
2022/05/21 10:38:07;;;;;;;5.38;1.30;;;;;;;16.12;86.27;101997.94;5034117;28;20033;-78
2022/05/21 10:40:47;;;;;;;5.25;1.30;;;;;;;16.16;85.80;101994.16;5015699;28;20510;-78
2022/05/21 10:43:38;;;;;;;5.68;1.63;;;;;;;16.21;85.78;101991.22;5034556;28;20041;-80
2022/05/21 10:46:35;;;;;;;2.75;1.00;;;;;;;16.02;83.71;102000.22;5037681;28;20396;-79
2022/05/21 10:49:24;;;;;;;6.10;1.38;;;;;;;16.01;85.04;101999.31;5036672;28;20407;-79
2022/05/21 10:52:35;;;;;;;5.22;1.42;;;;;;;16.05;84.73;102002.72;5037889;28;20040;-80
2022/05/21 10:55:09;;;;;;;7.28;1.95;;;;;;;16.28;86.09;101995.31;5013860;28;20622;-79
2022/05/21 10:58:08;;;;;;;5.18;1.23;;;;;;;16.35;84.03;101998.56;5036411;28;20503;-80
2022/05/21 11:00:57;;;;;;;4.07;1.35;;;;;;;16.43;83.55;101999.88;5019331;28;20037;-81
2022/05/21 11:03:40;;;;;;;4.80;1.17;;;;;;;16.41;83.85;101996.41;5003370;28;20041;-80
2022/05/21 11:06:15;;;;;;;3.92;1.00;;;;;;;16.38;83.81;102009.94;5035994;28;21527;-78
2022/05/21 11:08:59;;;;;;;2.83;1.23;;;;;;;16.38;83.78;102006.41;5038023;28;20099;-80
2022/05/21 11:11:37;;;;;;;3.33;1.30;;;;;;;16.39;83.38;102003.66;5019136;28;20048;-78
2022/05/21 11:14:20;;;;;;;3.83;1.10;;;;;;;16.50;84.04;102005.75;5027700;28;20515;-78
2022/05/21 11:16:57;;;;;;;2.55;1.20;;;;;;;16.46;84.19;102003.34;5021712;28;20496;-81
2022/05/21 11:19:24;;;;;;;3.03;1.00;;;;;;;16.49;83.99;102012.06;5021047;28;20741;-78
2022/05/21 11:21:58;;;;;;;3.78;1.50;;;;;;;16.52;81.99;102014.56;5022335;28;20112;-80
2022/05/21 11:24:28;;;;;;;1.90;1.20;;;;;;;16.49;83.51;102013.84;5003536;28;20030;-79
2022/05/21 11:26:59;;;;;;;3.42;1.30;;;;;;;16.40;83.14;102021.41;5019931;28;20154;-79
2022/05/21 11:29:40;;;;;;;3.22;1.15;;;;;;;16.43;82.79;102021.28;5020173;28;20030;-80
2022/05/21 11:37:48;;;;;;;2.88;1.08;;;;;;;16.54;81.97;102018.03;5021861;28;20033;-81
2022/05/21 11:40:32;;;;;;;;;;;;;;;16.64;81.70;102018.41;4991984;28;20037;-81
2022/05/21 11:42:57;;;;;;;4.43;1.05;;;;;;;16.69;82.02;102020.84;5019653;28;19924;-86
2022/05/21 11:45:25;;;;;;;5.75;1.20;;;;;;;16.68;82.25;102030.66;5002707;28;20041;-80
2022/05/21 11:48:11;;;;;;;3.05;0.88;;;;;;;16.60;81.92;102014.16;4989987;28;20060;-80
2022/05/21 11:50:37;;;;;;;4.90;1.60;;;;;;;16.52;82.39;102022.56;5003171;28;20040;-79
2022/05/21 11:53:08;;;;;;;2.05;0.80;;;;;;;16.42;81.70;102024.88;5003091;28;20042;-80
2022/05/21 11:56:13;;;;;;;10.60;1.40;;;;;;;16.39;80.96;102025.03;5003161;28;20032;-80
2022/05/21 11:59:00;;;;;;;2.38;0.73;;;;;;;16.35;80.18;102023.44;4937845;28;20464;-83
2022/05/21 12:01:38;;;;;;;2.92;0.90;;;;;;;16.29;80.39;102037.16;5018469;28;20057;-80